Time;durP1;ratioP1;P1;durP2;ratioP2;P2;SDS_P1;SDS_P2;PMS_P1;PMS_P2;Temp;Humidity;BMP_temperature;BMP_pressure;BME280_temperature;BME280_humidity;BME280_pressure;Samples;Min_cycle;Max_cycle;Signal;HPM_P1;HPM_P2
2022/07/20 00:02:02;;;;;;;;;28.75;26.50;;;;;30.04;38.22;101027.06;4901019;29;45502;-57
2022/07/20 00:04:28;;;;;;;;;22.75;21.75;;;;;30.02;38.19;101031.69;4901027;29;45328;-57
2022/07/20 00:06:54;;;;;;;;;26.25;24.75;;;;;30.04;37.69;101040.41;4900495;29;45994;-56
2022/07/20 00:12:04;;;;;;;;;22.00;20.75;;;;;30.04;37.97;101035.06;4900652;29;45301;-48
2022/07/20 00:14:30;;;;;;;;;22.50;22.50;;;;;30.03;37.57;101044.91;4901026;28;45497;-49
2022/07/20 00:16:55;;;;;;;;;23.25;21.00;;;;;30.04;37.83;101041.25;4899166;29;46352;-49
2022/07/20 00:19:21;;;;;;;;;26.50;21.25;;;;;30.03;37.47;101066.28;4900630;29;45443;-53
2022/07/20 00:21:47;;;;;;;;;27.50;22.75;;;;;30.04;38.10;101099.22;4900484;29;45349;-57
2022/07/20 00:24:12;;;;;;;;;26.00;24.75;;;;;30.05;38.05;101143.63;4900826;29;45312;-54
2022/07/20 00:26:37;;;;;;;;;26.25;25.50;;;;;30.02;38.06;101166.16;4900727;29;45352;-53
2022/07/20 00:29:03;;;;;;;;;28.00;23.25;;;;;30.02;37.63;101176.00;4900334;29;45428;-47
2022/07/20 00:31:28;;;;;;;;;27.00;25.75;;;;;30.03;38.27;101185.72;4900546;28;45374;-47
2022/07/20 00:33:54;;;;;;;;;24.50;22.50;;;;;30.00;38.30;101204.69;4900454;29;45793;-53
2022/07/20 00:36:20;;;;;;;;;25.00;21.00;;;;;30.00;37.96;101202.03;4900285;28;45355;-55
2022/07/20 00:38:45;;;;;;;;;24.25;24.25;;;;;29.99;38.27;101181.63;4900033;29;45764;-53
2022/07/20 00:41:12;;;;;;;;;27.00;22.00;;;;;29.98;37.77;101154.06;4900699;29;45337;-52
2022/07/20 00:43:57;;;;;;;;;21.00;21.00;;;;;30.01;38.52;101121.69;4900954;28;45624;-50
2022/07/20 00:46:23;;;;;;;;;25.50;23.25;;;;;30.00;38.55;101108.50;4900345;29;45505;-55
2022/07/20 00:48:48;;;;;;;;;24.50;22.25;;;;;29.99;37.89;101088.09;4899745;28;45284;-55
2022/07/20 00:51:13;;;;;;;;;24.50;22.00;;;;;29.98;37.97;101092.59;4900286;29;45433;-52
2022/07/20 00:53:39;;;;;;;;;24.75;22.25;;;;;29.95;38.39;101076.00;4900815;29;45543;-54
2022/07/20 00:56:07;;;;;;;;;27.25;23.75;;;;;29.96;38.98;101070.53;4898612;28;45411;-51
2022/07/20 00:58:33;;;;;;;;;25.00;22.25;;;;;29.96;38.68;101077.69;4900016;29;45309;-53
2022/07/20 01:00:58;;;;;;;;;24.50;24.50;;;;;29.96;39.39;101067.84;4899920;29;45266;-55
2022/07/20 01:03:23;;;;;;;;;25.25;21.75;;;;;29.96;38.80;101058.97;4900233;29;45587;-56
2022/07/20 01:05:49;;;;;;;;;26.50;24.50;;;;;29.95;39.10;101057.28;4899630;28;45382;-56
2022/07/20 01:08:14;;;;;;;;;31.25;23.00;;;;;29.93;39.98;101036.03;4900011;29;45381;-51
2022/07/20 01:10:40;;;;;;;;;22.00;22.00;;;;;29.93;39.59;101034.22;4900368;29;45226;-56
2022/07/20 01:13:05;;;;;;;;;24.75;22.75;;;;;29.93;39.90;101036.88;4899825;28;45302;-52
2022/07/20 01:15:31;;;;;;;;;27.25;26.50;;;;;29.92;40.24;101021.84;4899726;29;46114;-55
2022/07/20 01:17:56;;;;;;;;;21.00;21.00;;;;;29.94;39.86;101032.41;4897673;29;45602;-53
2022/07/20 01:20:24;;;;;;;;;26.00;22.00;;;;;29.90;39.82;101039.84;4899950;29;45374;-52
2022/07/20 01:22:49;;;;;;;;;28.00;28.00;;;;;29.90;40.68;101026.47;4899761;29;45565;-52
2022/07/20 01:25:15;;;;;;;;;31.50;29.00;;;;;29.92;40.45;101029.00;4899680;29;46060;-51
2022/07/20 01:27:40;;;;;;;;;29.50;27.00;;;;;29.92;40.91;101037.00;4899820;29;45418;-54
2022/07/20 01:30:06;;;;;;;;;27.25;23.75;;;;;29.91;40.22;101029.97;4898240;29;45370;-54
2022/07/20 01:32:33;;;;;;;;;31.75;30.00;;;;;29.91;41.01;101020.16;4899917;28;45628;-48
2022/07/20 01:34:58;;;;;;;;;34.25;30.75;;;;;29.91;40.85;101020.16;4899166;29;46234;-51
2022/07/20 01:37:23;;;;;;;;;32.50;31.50;;;;;29.93;40.53;101022.66;4899569;29;45234;-57
2022/07/20 01:39:49;;;;;;;;;35.00;30.25;;;;;29.90;40.67;101015.78;4899346;29;45937;-58
2022/07/20 01:42:14;;;;;;;;;30.00;29.50;;;;;29.90;40.92;101007.78;4899628;29;45622;-57
2022/07/20 01:44:39;;;;;;;;;38.25;31.50;;;;;29.91;41.20;101006.78;4899635;29;45978;-55
2022/07/20 01:47:05;;;;;;;;;42.50;35.25;;;;;29.92;41.73;101029.84;4899005;29;45365;-53
2022/07/20 01:49:30;;;;;;;;;41.00;35.50;;;;;29.91;41.97;101046.00;4898207;29;45259;-56
2022/07/20 01:51:55;;;;;;;;;44.75;37.75;;;;;29.87;42.81;101058.81;4899452;29;45438;-58
2022/07/20 01:54:21;;;;;;;;;43.00;34.25;;;;;29.82;43.46;101058.38;4899210;29;46828;-57
2022/07/20 01:56:46;;;;;;;;;49.00;39.25;;;;;29.80;43.64;101059.53;4899126;29;45356;-59
2022/07/20 01:59:11;;;;;;;;;47.25;40.25;;;;;29.76;43.38;101053.63;4898070;29;45431;-48
2022/07/20 02:01:38;;;;;;;;;45.50;39.25;;;;;29.74;43.61;101087.63;4898631;29;45440;-53
2022/07/20 02:04:04;;;;;;;;;53.25;41.75;;;;;29.72;44.16;101116.31;4898801;29;47024;-55
2022/07/20 02:06:29;;;;;;;;;56.50;45.00;;;;;29.69;44.14;101141.47;4899324;29;45393;-49
2022/07/20 02:08:55;;;;;;;;;51.25;43.75;;;;;29.65;43.51;101168.63;4898999;29;45398;-58
2022/07/20 02:11:20;;;;;;;;;55.75;44.25;;;;;29.59;43.51;101143.28;4899250;28;45325;-54
2022/07/20 02:13:46;;;;;;;;;53.75;40.75;;;;;29.52;44.29;101118.97;4898720;28;45899;-53
2022/07/20 02:16:14;;;;;;;;;54.25;43.75;;;;;29.46;43.91;101106.19;4899247;29;45903;-50
2022/07/20 02:18:40;;;;;;;;;50.25;42.25;;;;;29.44;44.80;101108.13;4899292;29;45281;-50
2022/07/20 02:21:05;;;;;;;;;52.25;41.25;;;;;29.42;44.79;101113.63;4899091;28;45508;-52
2022/07/20 02:23:31;;;;;;;;;56.00;43.75;;;;;29.39;44.18;101092.53;4898928;29;45377;-57
2022/07/20 02:25:56;;;;;;;;;52.67;44.00;;;;;29.37;44.25;101107.00;4898665;29;46940;-53
2022/07/20 02:28:22;;;;;;;;;51.75;42.50;;;;;29.33;44.70;101140.25;4899009;29;45254;-53
2022/07/20 02:30:47;;;;;;;;;53.50;42.75;;;;;29.27;44.62;101142.47;4901315;29;45261;-57
2022/07/20 02:33:12;;;;;;;;;53.50;44.00;;;;;29.24;45.02;101144.59;4902272;29;45288;-57
2022/07/20 02:35:38;;;;;;;;;52.00;41.67;;;;;29.22;45.10;101157.22;4902522;28;45317;-59
2022/07/20 02:38:03;;;;;;;;;53.00;43.50;;;;;29.19;44.87;101163.66;4901899;29;45339;-56
2022/07/20 02:40:28;;;;;;;;;54.00;43.25;;;;;29.18;44.81;101167.31;4902257;29;45341;-58
2022/07/20 02:42:54;;;;;;;;;56.50;44.75;;;;;29.15;44.97;101156.94;4901865;29;45312;-54
2022/07/20 02:45:21;;;;;;;;;54.25;44.25;;;;;29.12;44.70;101157.19;4900828;28;45440;-55
2022/07/20 02:47:48;;;;;;;;;53.75;43.75;;;;;29.11;44.98;101177.69;4901822;29;45555;-58
2022/07/20 02:50:14;;;;;;;;;55.25;44.25;;;;;29.09;44.87;101184.13;4902338;28;45394;-58
2022/07/20 02:52:41;;;;;;;;;55.00;44.50;;;;;29.09;44.51;101189.47;4902131;28;46977;-56
2022/07/20 02:55:07;;;;;;;;;59.75;45.25;;;;;29.06;45.25;101179.06;4902034;29;45880;-57
2022/07/20 02:57:33;;;;;;;;;56.25;45.00;;;;;29.02;45.08;101185.66;4902018;29;45309;-54
2022/07/20 02:59:58;;;;;;;;;57.25;44.50;;;;;29.02;44.35;101213.19;4901950;29;45339;-56
2022/07/20 03:02:24;;;;;;;;;53.50;44.25;;;;;28.97;45.30;101228.75;4901779;28;46051;-57
2022/07/20 03:04:49;;;;;;;;;56.50;45.00;;;;;28.98;44.67;101244.63;4901561;29;45542;-57
2022/07/20 03:07:15;;;;;;;;;57.00;45.75;;;;;28.95;45.11;101268.88;4901845;29;45702;-57
2022/07/20 03:09:42;;;;;;;;;57.50;45.50;;;;;28.92;44.65;101279.84;4902121;28;45454;-58
2022/07/20 03:12:08;;;;;;;;;55.75;45.00;;;;;28.91;44.95;101277.28;4901901;29;46916;-56
2022/07/20 03:14:33;;;;;;;;;57.25;46.25;;;;;28.89;44.83;101268.56;4901606;29;45695;-57
2022/07/20 03:16:59;;;;;;;;;57.75;46.00;;;;;28.90;44.61;101272.91;4901458;29;45209;-57
2022/07/20 03:19:24;;;;;;;;;53.33;44.00;;;;;28.87;44.51;101281.22;4901556;29;45539;-52
2022/07/20 03:21:49;;;;;;;;;52.33;42.00;;;;;28.83;44.58;101269.94;4900916;29;52080;-57
2022/07/20 03:24:15;;;;;;;;;54.75;44.50;;;;;28.86;45.27;101264.34;4901186;29;45389;-57
2022/07/20 03:26:40;;;;;;;;;51.75;41.75;;;;;28.86;45.48;101264.34;4901905;29;45217;-58
2022/07/20 03:29:05;;;;;;;;;51.75;43.50;;;;;28.85;45.40;101257.31;4901439;29;45196;-53
2022/07/20 03:31:30;;;;;;;;;55.50;44.75;;;;;28.87;45.46;101263.38;4901286;28;45567;-57
2022/07/20 03:33:56;;;;;;;;;55.25;44.00;;;;;28.86;45.33;101256.34;4899775;29;45416;-58
2022/07/20 03:36:21;;;;;;;;;55.33;46.00;;;;;28.86;45.15;101259.00;4901284;29;45382;-59
2022/07/20 03:38:46;;;;;;;;;56.50;43.50;;;;;28.88;45.25;101266.91;4901280;29;45556;-59
2022/07/20 03:41:12;;;;;;;;;58.25;45.50;;;;;28.87;45.21;101271.38;4900657;29;46137;-54
2022/07/20 03:43:37;;;;;;;;;54.00;44.00;;;;;28.85;45.51;101262.66;4901413;29;45461;-57
2022/07/20 03:46:02;;;;;;;;;53.00;43.00;;;;;28.82;45.58;101262.94;4900959;29;45182;-58
2022/07/20 03:48:28;;;;;;;;;53.67;43.33;;;;;28.82;45.48;101266.44;4899744;28;48558;-54
2022/07/20 03:50:53;;;;;;;;;52.00;43.25;;;;;28.80;45.93;101280.88;4900857;29;45413;-57
2022/07/20 03:53:18;;;;;;;;;55.25;43.00;;;;;28.82;45.98;101294.94;4899691;29;45411;-58
2022/07/20 03:55:44;;;;;;;;;55.50;43.50;;;;;28.79;45.98;101284.53;4900845;29;45433;-58
2022/07/20 03:58:09;;;;;;;;;53.00;42.33;;;;;28.79;46.09;101311.19;4901457;29;45350;-55
2022/07/20 04:00:34;;;;;;;;;51.75;43.75;;;;;28.80;46.38;101340.41;4900847;29;45358;-57
2022/07/20 04:03:00;;;;;;;;;54.75;43.00;;;;;28.80;46.79;101361.75;4900673;29;45415;-58
2022/07/20 04:05:25;;;;;;;;;50.75;41.75;;;;;28.80;46.97;101355.56;4901019;29;45372;-58
2022/07/20 04:07:50;;;;;;;;;52.33;42.33;;;;;28.77;46.68;101350.47;4900892;29;45508;-56
2022/07/20 04:10:16;;;;;;;;;49.25;40.50;;;;;28.77;47.34;101321.13;4900670;28;46195;-58
2022/07/20 04:12:41;;;;;;;;;50.25;38.75;;;;;28.76;46.62;101311.44;4900969;29;46162;-48
2022/07/20 04:15:08;;;;;;;;;45.50;38.00;;;;;28.73;46.55;101317.88;4901273;28;45300;-47
2022/07/20 04:17:34;;;;;;;;;41.00;34.00;;;;;28.70;46.40;101297.63;4900907;28;45566;-53
2022/07/20 04:19:59;;;;;;;;;39.75;33.25;;;;;28.66;46.09;101290.00;4900313;29;45271;-56
2022/07/20 04:22:24;;;;;;;;;33.25;31.75;;;;;28.59;45.86;101295.00;4900585;29;45241;-58
2022/07/20 04:24:50;;;;;;;;;38.75;33.50;;;;;28.52;45.65;101262.66;4900370;29;45397;-59
2022/07/20 04:27:15;;;;;;;;;36.25;32.00;;;;;28.45;45.16;101248.13;4900901;29;45272;-57
2022/07/20 04:29:40;;;;;;;;;27.25;25.50;;;;;28.37;45.60;101237.28;4900603;29;45209;-53
2022/07/20 04:32:06;;;;;;;;;32.50;30.50;;;;;28.28;45.88;101259.38;4900328;29;45190;-58
2022/07/20 04:34:31;;;;;;;;;32.00;30.00;;;;;28.25;45.28;101260.47;4899330;28;45396;-58
2022/07/20 04:36:56;;;;;;;;;39.00;32.75;;;;;28.23;45.52;101238.41;4900520;29;45226;-57
2022/07/20 04:39:22;;;;;;;;;30.75;28.75;;;;;28.24;45.74;101227.63;4900050;29;46153;-57
2022/07/20 04:41:47;;;;;;;;;28.75;27.00;;;;;28.19;45.05;101228.97;4900100;29;45201;-59
2022/07/20 04:44:13;;;;;;;;;29.00;28.50;;;;;28.16;45.37;101213.25;4900444;29;45404;-58
2022/07/20 04:46:38;;;;;;;;;32.75;30.25;;;;;28.08;45.32;101192.56;4900880;29;45562;-59
2022/07/20 04:49:04;;;;;;;;;26.75;26.75;;;;;28.01;45.39;101194.00;4899743;29;46037;-59
2022/07/20 04:51:29;;;;;;;;;33.75;29.50;;;;;27.97;44.87;101211.22;4900079;29;45413;-56
2022/07/20 04:53:54;;;;;;;;;32.25;28.25;;;;;27.93;44.96;101223.94;4899334;28;45359;-62
2022/07/20 04:56:20;;;;;;;;;33.50;30.00;;;;;27.87;44.74;101227.97;4899248;28;45383;-57
2022/07/20 04:58:52;;;;;;;;;28.75;28.00;;;;;27.79;45.25;101243.69;4899662;29;46055;-55
2022/07/20 05:01:18;;;;;;;;;37.50;29.75;;;;;27.75;45.54;101280.38;4899981;29;45310;-57
2022/07/20 05:03:44;;;;;;;;;29.25;28.50;;;;;27.70;45.84;101303.88;4899977;29;45282;-56
2022/07/20 05:06:09;;;;;;;;;29.50;29.00;;;;;27.75;46.08;101315.00;4900569;28;45495;-44
2022/07/20 05:08:34;;;;;;;;;31.00;27.00;;;;;27.77;46.10;101315.72;4899752;28;46146;-59
2022/07/20 05:11:00;;;;;;;;;29.50;29.25;;;;;27.81;46.44;101331.47;4899581;28;45979;-55
2022/07/20 05:13:25;;;;;;;;;28.25;28.25;;;;;27.81;45.98;101332.31;4899935;29;45439;-55
2022/07/20 05:15:51;;;;;;;;;30.50;27.00;;;;;27.82;46.12;101301.22;4899898;29;45309;-54
2022/07/20 05:18:16;;;;;;;;;27.00;26.50;;;;;27.80;45.97;101297.81;4899678;29;46493;-55
2022/07/20 05:20:41;;;;;;;;;29.00;27.25;;;;;27.82;46.18;101314.53;4899536;29;50203;-52
2022/07/20 05:23:07;;;;;;;;;26.50;25.75;;;;;27.80;46.09;101300.47;4900099;29;45325;-51
2022/07/20 05:25:33;;;;;;;;;26.00;23.50;;;;;27.73;46.17;101245.03;4899847;29;45535;-55
2022/07/20 05:27:58;;;;;;;;;26.00;25.00;;;;;27.68;45.96;101209.09;4899311;29;46499;-58
2022/07/20 05:30:24;;;;;;;;;25.25;22.25;;;;;27.62;45.25;101195.31;4899554;29;45440;-57
2022/07/20 05:32:49;;;;;;;;;24.00;22.25;;;;;27.54;45.17;101178.25;4898206;29;45249;-52
2022/07/20 05:35:14;;;;;;;;;22.50;21.75;;;;;27.49;44.86;101173.28;4899803;29;45621;-51
2022/07/20 05:37:40;;;;;;;;;22.00;21.00;;;;;27.43;45.45;101219.84;4899654;29;46178;-53
2022/07/20 05:40:05;;;;;;;;;23.75;21.25;;;;;27.41;45.55;101224.44;4899273;29;45339;-59
2022/07/20 05:42:31;;;;;;;;;26.00;23.00;;;;;27.37;45.22;101231.00;4899545;29;45411;-57
2022/07/20 05:44:56;;;;;;;;;22.00;22.00;;;;;27.31;44.78;101245.63;4899634;29;45595;-57
2022/07/20 05:47:22;;;;;;;;;32.50;24.50;;;;;27.29;45.23;101257.34;4897953;28;47184;-58
2022/07/20 05:49:48;;;;;;;;;21.00;21.00;;;;;27.29;44.98;101249.34;4899200;28;45302;-59
2022/07/20 05:52:15;;;;;;;;;18.75;17.75;;;;;27.34;45.00;101249.03;4899463;28;45414;-58
2022/07/20 05:54:40;;;;;;;;;25.50;22.50;;;;;27.30;44.18;101273.22;4899912;29;45336;-58
2022/07/20 05:57:06;;;;;;;;;23.00;20.75;;;;;27.23;44.52;101271.13;4899003;29;46330;-58
2022/07/20 05:59:31;;;;;;;;;18.50;17.00;;;;;27.20;44.67;101277.56;4899379;29;45843;-59
2022/07/20 06:01:56;;;;;;;;;22.50;21.50;;;;;27.16;44.67;101279.63;4899294;29;45335;-57
2022/07/20 06:04:22;;;;;;;;;23.50;20.50;;;;;27.09;44.91;101267.72;4901406;29;45924;-57
2022/07/20 06:06:47;;;;;;;;;20.25;19.25;;;;;27.01;45.04;101249.69;4902246;28;45435;-57
2022/07/20 06:09:12;;;;;;;;;24.75;20.75;;;;;26.99;45.32;101241.00;4902519;29;45337;-57
2022/07/20 06:11:38;;;;;;;;;21.00;19.50;;;;;26.99;45.34;101250.78;4902826;29;45416;-58
2022/07/20 06:14:03;;;;;;;;;21.75;21.75;;;;;27.02;45.49;101266.50;4902612;29;45311;-47
2022/07/20 06:16:28;;;;;;;;;24.50;21.75;;;;;27.08;46.00;101262.53;4902352;29;46196;-57
2022/07/20 06:18:54;;;;;;;;;22.75;21.75;;;;;27.06;45.30;101262.66;4902047;29;45166;-58
2022/07/20 06:21:19;;;;;;;;;22.75;22.75;;;;;27.07;45.73;101282.94;4902517;29;45269;-55
2022/07/20 06:23:45;;;;;;;;;23.50;21.75;;;;;27.06;45.47;101296.38;4902337;29;45536;-58
2022/07/20 06:26:10;;;;;;;;;23.50;21.00;;;;;27.05;45.35;101323.94;4902677;28;45439;-58
2022/07/20 06:28:35;;;;;;;;;24.75;22.75;;;;;27.04;45.52;101323.13;4901128;29;45274;-53
2022/07/20 06:31:01;;;;;;;;;24.25;21.00;;;;;27.03;45.60;101348.03;4902034;28;45269;-57
2022/07/20 06:33:26;;;;;;;;;27.50;22.50;;;;;27.02;46.06;101367.59;4902769;29;45230;-49
2022/07/20 06:35:52;;;;;;;;;25.00;22.00;;;;;27.01;46.40;101372.06;4901893;28;45964;-50
2022/07/20 06:38:18;;;;;;;;;28.50;24.00;;;;;27.03;46.61;101361.31;4901672;29;45354;-53
2022/07/20 06:40:43;;;;;;;;;24.25;20.25;;;;;27.01;46.67;101360.59;4902079;29;45340;-50
2022/07/20 06:43:08;;;;;;;;;19.50;19.50;;;;;26.97;46.76;101364.41;4902582;29;45370;-54
2022/07/20 06:45:34;;;;;;;;;22.00;20.00;;;;;26.95;46.90;101377.84;4900743;29;48307;-52
2022/07/20 06:47:59;;;;;;;;;24.50;21.50;;;;;26.91;47.07;101370.22;4901650;29;45510;-59
2022/07/20 06:50:25;;;;;;;;;27.75;24.25;;;;;26.84;46.79;101361.84;4901958;28;45473;-60
2022/07/20 06:52:50;;;;;;;;;22.75;20.50;;;;;26.73;47.28;101346.66;4901833;29;45315;-60
2022/07/20 06:55:16;;;;;;;;;21.25;20.75;;;;;26.68;47.36;101338.16;4901903;29;46568;-55
2022/07/20 06:57:43;;;;;;;;;21.75;19.50;;;;;26.65;47.18;101331.28;4902311;29;45433;-51
2022/07/20 07:00:09;;;;;;;;;22.50;19.00;;;;;26.55;46.79;101320.47;4902219;29;45338;-58
2022/07/20 07:02:34;;;;;;;;;22.25;21.75;;;;;26.46;47.31;101317.66;4900838;29;45549;-65
2022/07/20 07:05:00;;;;;;;;;24.50;21.50;;;;;26.39;47.40;101309.28;4901371;29;45344;-58
2022/07/20 07:07:25;;;;;;;;;25.25;21.50;;;;;26.38;47.70;101327.00;4901770;28;45508;-57
2022/07/20 07:09:50;;;;;;;;;19.50;19.50;;;;;26.33;48.00;101329.16;4901504;29;45336;-60
2022/07/20 07:12:16;;;;;;;;;22.50;21.00;;;;;26.31;47.95;101314.28;4901903;29;45619;-56
2022/07/20 07:14:41;;;;;;;;;23.00;20.00;;;;;26.30;48.07;101315.22;4901279;28;51727;-48
2022/07/20 07:17:07;;;;;;;;;20.75;20.00;;;;;26.27;48.01;101328.75;4901355;28;45258;-63
2022/07/20 07:19:33;;;;;;;;;25.25;24.00;;;;;26.19;48.08;101324.84;4901645;28;45243;-59
2022/07/20 07:21:58;;;;;;;;;25.75;23.00;;;;;26.17;48.12;101333.88;4900315;29;45624;-55
2022/07/20 07:24:24;;;;;;;;;27.25;24.25;;;;;26.17;48.71;101334.75;4900076;28;45376;-58
2022/07/20 07:26:49;;;;;;;;;24.25;23.25;;;;;26.14;48.42;101311.06;4901122;29;45426;-63
2022/07/20 07:29:14;;;;;;;;;22.00;22.00;;;;;26.13;48.95;101296.06;4900231;29;45287;-61
2022/07/20 07:31:40;;;;;;;;;26.00;21.50;;;;;26.02;48.69;101320.69;4900718;29;45393;-57
2022/07/20 07:34:05;;;;;;;;;25.00;22.75;;;;;25.96;48.73;101347.72;4899646;29;47455;-61
2022/07/20 07:36:31;;;;;;;;;25.25;22.00;;;;;25.90;49.38;101342.84;4899965;29;45391;-46
2022/07/20 07:38:56;;;;;;;;;25.00;21.50;;;;;25.83;48.87;101315.88;4901245;29;45318;-51
2022/07/20 07:41:22;;;;;;;;;28.00;20.75;;;;;25.78;49.12;101325.94;4901506;28;45390;-50
2022/07/20 07:43:47;;;;;;;;;22.25;20.00;;;;;25.76;49.04;101357.94;4901003;29;45435;-58
2022/07/20 07:46:12;;;;;;;;;27.75;22.75;;;;;25.77;49.57;101364.94;4901225;29;45502;-60
2022/07/20 07:48:38;;;;;;;;;24.00;23.50;;;;;25.81;49.45;101359.41;4901287;29;45336;-61
2022/07/20 07:51:04;;;;;;;;;21.50;19.25;;;;;25.88;49.38;101358.03;4901265;28;45238;-57
2022/07/20 07:53:29;;;;;;;;;27.00;23.75;;;;;25.93;49.36;101378.00;4901007;28;46191;-60
2022/07/20 07:55:54;;;;;;;;;24.00;23.50;;;;;26.02;49.24;101394.22;4900654;29;45368;-62
2022/07/20 07:58:20;;;;;;;;;27.25;22.75;;;;;26.09;49.53;101376.91;4900900;29;45984;-61
2022/07/20 08:00:46;;;;;;;;;24.75;20.75;;;;;26.17;49.22;101387.88;4899719;29;45639;-62
2022/07/20 08:03:11;;;;;;;;;22.50;21.00;;;;;26.22;48.88;101390.22;4901000;29;46102;-50
2022/07/20 08:05:37;;;;;;;;;22.75;21.50;;;;;26.26;48.49;101390.84;4901165;29;45443;-60
2022/07/20 08:08:16;;;;;;;;;25.00;23.75;;;;;26.28;48.98;101388.91;4900688;29;45232;-60
2022/07/20 08:10:42;;;;;;;;;25.00;21.75;;;;;26.33;48.94;101386.78;4901215;29;45444;-55
2022/07/20 08:13:08;;;;;;;;;23.50;23.00;;;;;26.39;48.53;101391.66;4901000;29;45429;-61
2022/07/20 08:15:33;;;;;;;;;23.25;21.25;;;;;26.45;48.96;101385.88;4900909;29;45300;-60
2022/07/20 08:18:00;;;;;;;;;23.50;21.00;;;;;26.46;48.79;101381.44;4899356;29;45331;-65
2022/07/20 08:20:26;;;;;;;;;22.50;21.00;;;;;26.49;49.03;101383.84;4901123;29;45281;-61
2022/07/20 08:22:52;;;;;;;;;23.75;22.50;;;;;26.48;48.81;101406.94;4900392;29;45434;-59
2022/07/20 08:25:19;;;;;;;;;25.00;23.00;;;;;26.43;48.45;101403.75;4900691;29;45249;-63
2022/07/20 08:27:44;;;;;;;;;22.75;20.50;;;;;26.41;48.87;101400.34;4900532;29;45360;-61
2022/07/20 08:30:11;;;;;;;;;23.75;22.25;;;;;26.44;48.55;101389.50;4901180;29;45283;-56
2022/07/20 08:32:36;;;;;;;;;27.75;26.00;;;;;26.46;48.38;101381.44;4900664;28;45902;-61
2022/07/20 08:35:02;;;;;;;;;22.00;20.00;;;;;26.49;48.68;101383.84;4900264;29;45381;-61
2022/07/20 08:37:29;;;;;;;;;23.25;22.50;;;;;26.49;48.41;101390.03;4900550;29;45301;-59
2022/07/20 08:39:54;;;;;;;;;25.50;22.00;;;;;26.51;48.10;101396.06;4899226;29;45590;-59
2022/07/20 08:42:21;;;;;;;;;24.75;22.25;;;;;26.54;48.49;101400.34;4900338;29;46325;-57
2022/07/20 08:44:47;;;;;;;;;22.25;21.25;;;;;26.53;48.12;101390.66;4900184;29;45263;-61
2022/07/20 08:47:14;;;;;;;;;21.75;19.50;;;;;26.50;47.45;101394.41;4900296;28;45201;-52
2022/07/20 08:49:45;;;;;;;;;19.75;18.50;;;;;26.47;47.96;101402.59;4900914;29;45487;-48
2022/07/20 08:52:10;;;;;;;;;21.00;20.00;;;;;26.47;47.68;101405.25;4900289;28;46250;-54
2022/07/20 08:54:36;;;;;;;;;23.00;20.75;;;;;26.48;47.89;101409.59;4900219;29;45293;-58
2022/07/20 08:57:16;;;;;;;;;20.25;20.00;;;;;26.46;47.83;101403.53;4900148;29;45478;-61
2022/07/20 08:59:43;;;;;;;;;22.25;21.25;;;;;26.49;47.92;101398.00;4900221;29;45326;-52
2022/07/20 09:02:09;;;;;;;;;21.50;20.75;;;;;26.48;47.89;101398.09;4900259;29;45408;-58
2022/07/20 09:04:53;;;;;;;;;23.25;23.25;;;;;26.52;48.08;101396.94;4883203;29;45338;-57
2022/07/20 09:07:37;;;;;;;;;19.75;18.75;;;;;26.52;47.96;101389.78;4899958;29;45448;-60
2022/07/20 09:10:05;;;;;;;;;23.00;21.75;;;;;26.57;47.76;101399.25;4899910;29;45377;-60
2022/07/20 09:12:30;;;;;;;;;22.25;20.75;;;;;26.55;47.76;101392.22;4899862;29;46711;-60
2022/07/20 09:14:55;;;;;;;;;19.25;19.25;;;;;26.59;47.85;101392.84;4898299;29;45348;-61
2022/07/20 09:17:23;;;;;;;;;24.75;20.25;;;;;26.62;47.34;101375.84;4900007;29;45342;-61
2022/07/20 09:19:59;;;;;;;;;20.50;18.25;;;;;26.64;47.36;101374.78;4899750;29;45563;-60
2022/07/20 09:22:30;;;;;;;;;19.00;16.50;;;;;26.65;47.10;101386.25;4899778;29;45479;-61
2022/07/20 09:25:10;;;;;;;;;21.50;20.00;;;;;26.65;47.18;101379.13;4899544;29;45261;-58
2022/07/20 09:27:36;;;;;;;;;19.50;18.00;;;;;26.65;47.05;101384.44;4899656;29;45446;-60
2022/07/20 09:30:11;;;;;;;;;19.25;18.00;;;;;26.65;46.98;101386.25;4899758;29;45594;-60
2022/07/20 09:32:49;;;;;;;;;18.25;17.00;;;;;26.68;47.09;101394.00;4899810;29;45962;-62
2022/07/20 09:35:15;;;;;;;;;14.50;14.00;;;;;26.67;46.97;101390.50;4899662;29;45358;-61
2022/07/20 09:37:40;;;;;;;;;17.75;14.75;;;;;26.68;46.69;101389.53;4900045;29;45365;-61
2022/07/20 09:40:06;;;;;;;;;17.25;17.25;;;;;26.67;46.61;101386.97;4899039;29;45534;-62
2022/07/20 09:42:39;;;;;;;;;15.50;14.75;;;;;26.69;46.83;101390.38;4899515;29;46361;-59
2022/07/20 09:45:22;;;;;;;;;18.25;14.50;;;;;26.71;46.28;101404.41;4899326;29;45842;-52
2022/07/20 09:48:03;;;;;;;;;16.25;14.75;;;;;26.71;46.49;101401.75;4899294;28;45588;-57
2022/07/20 09:50:34;;;;;;;;;13.50;12.00;;;;;26.70;46.03;101414.19;4899848;29;45190;-57
2022/07/20 09:52:59;;;;;;;;;11.50;11.50;;;;;26.71;46.65;101417.72;4898849;29;45350;-50
2022/07/20 09:55:26;;;;;;;;;13.75;13.50;;;;;26.70;46.17;101414.19;4899445;29;45373;-61
2022/07/20 09:57:53;;;;;;;;;15.75;12.25;;;;;26.72;46.38;101429.19;4899312;29;45234;-57
2022/07/20 10:00:19;;;;;;;;;13.50;12.50;;;;;26.66;46.56;101425.16;4899494;29;45245;-59
2022/07/20 10:02:49;;;;;;;;;11.00;11.00;;;;;26.66;45.95;101435.81;4899014;29;46268;-59
2022/07/20 10:05:18;;;;;;;;;10.00;10.00;;;;;26.66;46.29;101433.13;4899252;29;45769;-56
2022/07/20 10:07:44;;;;;;;;;17.00;13.50;;;;;26.65;46.11;101428.78;4899267;29;45367;-56
2022/07/20 10:10:09;;;;;;;;;15.00;13.00;;;;;26.67;46.34;101421.56;4899846;29;45547;-53
2022/07/20 10:12:35;;;;;;;;;12.25;12.25;;;;;26.68;46.36;101417.94;4899067;29;45533;-60
2022/07/20 10:15:01;;;;;;;;;10.75;9.50;;;;;26.70;46.67;101416.00;4898945;29;45317;-59
2022/07/20 10:17:30;;;;;;;;;10.25;10.25;;;;;26.70;46.57;101411.53;4899243;29;45751;-58
2022/07/20 10:19:56;;;;;;;;;9.25;8.25;;;;;26.70;46.22;101413.34;4899121;29;45537;-57
2022/07/20 10:22:22;;;;;;;;;13.75;9.50;;;;;26.70;46.36;101421.34;4899201;29;46320;-60
2022/07/20 10:25:19;;;;;;;;;11.00;10.00;;;;;26.71;46.07;101433.66;4898824;28;45587;-60
2022/07/20 10:27:44;;;;;;;;;10.75;9.25;;;;;26.70;45.89;101432.81;4898852;29;45372;-59
2022/07/20 10:30:17;;;;;;;;;8.25;6.50;;;;;26.67;45.93;101438.38;4898307;29;45341;-60
2022/07/20 10:32:56;;;;;;;;;9.00;9.00;;;;;26.65;46.05;101440.28;4898593;29;45397;-59
2022/07/20 10:35:30;;;;;;;;;9.00;9.00;;;;;26.65;45.92;101431.44;4898918;29;45368;-61
2022/07/20 10:37:56;;;;;;;;;12.75;8.75;;;;;26.63;45.88;101404.09;4897532;29;45303;-62
2022/07/20 10:40:28;;;;;;;;;10.75;7.75;;;;;26.67;45.81;101410.91;4899060;29;45435;-53
2022/07/20 10:43:12;;;;;;;;;8.00;8.00;;;;;26.61;46.10;101416.69;4898500;29;47147;-58
2022/07/20 10:45:38;;;;;;;;;6.75;5.00;;;;;26.60;45.92;101417.66;4899081;29;45703;-60
2022/07/20 10:48:12;;;;;;;;;7.75;7.00;;;;;26.51;46.37;101422.66;4898501;29;45515;-60
2022/07/20 10:50:39;;;;;;;;;11.25;9.50;;;;;26.48;46.11;101424.69;4900148;29;45246;-61
2022/07/20 10:53:11;;;;;;;;;12.25;8.75;;;;;26.46;45.90;101421.31;4901734;29;45450;-60
2022/07/20 10:55:36;;;;;;;;;9.50;9.50;;;;;26.44;45.71;101415.25;4902361;29;45780;-59
2022/07/20 10:58:13;;;;;;;;;9.25;9.00;;;;;26.47;46.01;101422.97;4901857;29;45401;-60
2022/07/20 11:00:47;;;;;;;;;9.00;6.00;;;;;26.48;46.19;101437.97;4902375;28;45578;-57
2022/07/20 11:03:20;;;;;;;;;10.00;9.25;;;;;26.52;46.32;101444.78;4901829;29;46234;-56
2022/07/20 11:05:48;;;;;;;;;11.00;8.25;;;;;26.51;46.48;101443.91;4901012;29;45328;-61
2022/07/20 11:08:14;;;;;;;;;7.50;7.25;;;;;26.53;46.29;101446.47;4902038;28;45464;-58
2022/07/20 11:10:41;;;;;;;;;11.25;10.25;;;;;26.49;46.06;101445.84;4902350;28;45301;-62